createdAt,value
2018-03-26T00:00:30.654Z,5.46
2018-03-26T00:01:30.673Z,5.45
2018-03-26T00:02:30.693Z,5.40
2018-03-26T00:03:30.695Z,5.58
2018-03-26T00:04:30.713Z,5.67
2018-03-26T00:05:30.729Z,5.74
2018-03-26T00:06:30.764Z,5.82
2018-03-26T00:07:30.732Z,5.93
2018-03-26T00:08:30.749Z,5.97
2018-03-26T00:09:30.757Z,6.12
2018-03-26T00:10:30.769Z,5.90
2018-03-26T00:11:30.813Z,5.79
2018-03-26T00:12:30.791Z,5.74
2018-03-26T00:13:30.802Z,5.89
2018-03-26T00:14:30.814Z,5.79
2018-03-26T00:15:30.824Z,5.85
2018-03-26T00:16:30.883Z,5.78
2018-03-26T00:17:30.852Z,5.83
2018-03-26T00:18:30.864Z,5.82
2018-03-26T00:19:30.877Z,5.99
2018-03-26T00:20:30.886Z,6.01
2018-03-26T00:21:30.914Z,5.91
2018-03-26T00:22:30.945Z,5.85
2018-03-26T00:23:30.916Z,5.81
2018-03-26T00:24:30.936Z,5.81
2018-03-26T00:25:30.940Z,5.71
2018-03-26T00:26:30.977Z,5.63
2018-03-26T00:27:31.015Z,5.67
2018-03-26T00:28:30.979Z,5.58
2018-03-26T00:29:30.989Z,5.57
2018-03-26T00:30:30.996Z,5.54
2018-03-26T00:31:31.024Z,5.60
2018-03-26T00:32:31.028Z,5.61
2018-03-26T00:33:31.081Z,5.45
2018-03-26T00:34:31.074Z,5.39
2018-03-26T00:35:31.120Z,5.40
2018-03-26T00:36:31.077Z,5.31
2018-03-26T00:37:31.106Z,5.30
2018-03-26T00:38:31.098Z,5.31
2018-03-26T00:39:31.121Z,5.27
2018-03-26T00:40:31.151Z,5.31
2018-03-26T00:41:31.151Z,5.43
2018-03-26T00:42:31.163Z,5.56
2018-03-26T00:43:31.157Z,5.36
2018-03-26T00:44:31.179Z,5.38
2018-03-26T00:45:31.207Z,5.28
2018-03-26T00:46:31.205Z,5.25
2018-03-26T00:47:31.217Z,5.18
2018-03-26T00:48:31.245Z,5.28
2018-03-26T00:49:31.224Z,5.33
2018-03-26T00:50:31.242Z,5.27
2018-03-26T00:51:31.247Z,5.33
2018-03-26T00:52:31.271Z,5.21
2018-03-26T00:53:31.285Z,5.13
2018-03-26T00:54:31.285Z,5.06
2018-03-26T00:55:31.287Z,5.10
2018-03-26T00:56:31.302Z,5.03
2018-03-26T00:57:31.330Z,5.06
2018-03-26T00:58:31.322Z,5.06
2018-03-26T00:59:31.332Z,5.20
2018-03-26T01:00:31.353Z,5.17
2018-03-26T01:01:31.395Z,5.10
2018-03-26T01:02:31.368Z,5.03
2018-03-26T01:03:31.389Z,5.02
2018-03-26T01:04:31.389Z,5.03
2018-03-26T01:05:31.404Z,5.09
2018-03-26T01:06:31.432Z,5.04
2018-03-26T01:07:31.432Z,5.09
2018-03-26T01:08:31.434Z,5.39
2018-03-26T01:09:31.450Z,5.36
2018-03-26T01:10:31.456Z,5.12
2018-03-26T01:11:31.476Z,5.04
2018-03-26T01:12:31.502Z,5.06
2018-03-26T01:13:31.502Z,5.13
2018-03-26T01:14:31.518Z,5.06
2018-03-26T01:15:31.524Z,5.07
2018-03-26T01:16:31.533Z,5.36
2018-03-26T01:17:31.594Z,5.27
2018-03-26T01:18:31.549Z,5.12
2018-03-26T01:19:31.562Z,5.13
2018-03-26T01:20:31.583Z,5.21
2018-03-26T01:21:31.617Z,5.12
2018-03-26T01:22:31.612Z,5.28
2018-03-26T01:23:31.636Z,5.17
2018-03-26T01:24:31.625Z,5.30
2018-03-26T01:25:31.628Z,5.36
2018-03-26T01:26:31.660Z,5.25
2018-03-26T01:27:31.667Z,5.21
2018-03-26T01:28:31.677Z,5.42
2018-03-26T01:29:31.678Z,5.45
2018-03-26T01:30:31.694Z,5.28
2018-03-26T01:31:31.724Z,5.31
2018-03-26T01:32:31.717Z,5.24
2018-03-26T01:33:31.745Z,5.35
2018-03-26T01:34:31.732Z,5.17
2018-03-26T01:35:31.743Z,5.20
2018-03-26T01:36:31.754Z,5.18
2018-03-26T01:37:31.766Z,5.15
2018-03-26T01:38:31.811Z,5.18
2018-03-26T01:39:31.841Z,5.17
2018-03-26T01:40:31.816Z,5.15
2018-03-26T01:41:31.810Z,5.13
2018-03-26T01:42:31.844Z,5.36
2018-03-26T01:43:31.839Z,5.45
2018-03-26T01:44:31.850Z,5.46
2018-03-26T01:45:31.896Z,5.57
2018-03-26T01:46:31.925Z,5.79
2018-03-26T01:47:31.900Z,5.91
2018-03-26T01:48:31.900Z,5.74
2018-03-26T01:49:31.918Z,5.57
2018-03-26T01:50:31.924Z,5.63
2018-03-26T01:51:31.930Z,5.58
2018-03-26T01:52:31.954Z,5.54
2018-03-26T01:53:31.947Z,5.53
2018-03-26T01:54:31.962Z,5.57
2018-03-26T01:55:31.979Z,5.68
2018-03-26T01:56:31.996Z,5.64
2018-03-26T01:57:31.996Z,5.65
2018-03-26T01:58:32.010Z,5.79
2018-03-26T01:59:32.049Z,5.85
2018-03-26T02:00:32.031Z,5.91
2018-03-26T02:01:32.040Z,5.85
2018-03-26T02:02:32.053Z,5.79
2018-03-26T02:03:32.064Z,5.71
2018-03-26T02:04:32.100Z,5.89
2018-03-26T02:05:32.086Z,5.89
2018-03-26T02:06:32.103Z,5.75
2018-03-26T02:07:32.109Z,5.85
2018-03-26T02:08:32.127Z,5.94
2018-03-26T02:09:32.166Z,5.89
2018-03-26T02:10:32.142Z,5.83
2018-03-26T02:11:32.158Z,5.75
2018-03-26T02:12:32.169Z,5.65
2018-03-26T02:13:32.184Z,5.75
2018-03-26T02:14:32.209Z,6.01
2018-03-26T02:15:32.207Z,5.89
2018-03-26T02:16:32.220Z,6.04
2018-03-26T02:17:32.230Z,5.79
2018-03-26T02:18:32.271Z,5.81
2018-03-26T02:19:32.250Z,5.74
2018-03-26T02:20:32.263Z,5.72
2018-03-26T02:21:32.267Z,5.85
2018-03-26T02:22:32.285Z,5.76
2018-03-26T02:23:32.293Z,5.64
2018-03-26T02:24:32.343Z,5.67
2018-03-26T02:25:32.316Z,5.85
2018-03-26T02:26:32.339Z,5.67
2018-03-26T02:27:32.344Z,5.74
2018-03-26T02:28:32.362Z,5.67
2018-03-26T02:29:32.394Z,5.64
2018-03-26T02:30:32.378Z,5.65
2018-03-26T02:31:32.405Z,5.60
2018-03-26T02:32:32.452Z,5.60
2018-03-26T02:33:32.411Z,5.81
2018-03-26T02:34:32.421Z,5.65
2018-03-26T02:35:32.434Z,5.57
2018-03-26T02:36:32.443Z,5.46
2018-03-26T02:37:32.478Z,5.53
2018-03-26T02:38:32.488Z,5.51
2018-03-26T02:39:32.486Z,5.71
2018-03-26T02:40:32.534Z,5.56
2018-03-26T02:41:32.496Z,5.78
2018-03-26T02:42:32.517Z,5.91
2018-03-26T02:43:32.528Z,5.94
2018-03-26T02:44:32.540Z,6.03
2018-03-26T02:45:32.555Z,5.90
2018-03-26T02:46:32.589Z,5.85
2018-03-26T02:47:32.571Z,5.81
2018-03-26T02:48:32.582Z,5.72
2018-03-26T02:49:32.597Z,5.81
2018-03-26T02:50:32.604Z,5.86
2018-03-26T02:51:32.638Z,5.61
2018-03-26T02:52:32.643Z,5.42
2018-03-26T02:53:32.644Z,5.45
2018-03-26T02:54:32.649Z,5.35
2018-03-26T02:55:32.667Z,5.21
2018-03-26T02:56:32.678Z,5.63
2018-03-26T02:57:32.704Z,5.45
2018-03-26T02:58:32.701Z,5.43
2018-03-26T02:59:32.710Z,5.42
2018-03-26T03:00:32.717Z,5.36
2018-03-26T03:01:32.732Z,5.39
2018-03-26T03:02:32.776Z,5.33
2018-03-26T03:03:32.765Z,5.36
2018-03-26T03:04:32.782Z,5.13
2018-03-26T03:05:32.781Z,5.12
2018-03-26T03:06:32.791Z,5.22
2018-03-26T03:07:32.830Z,5.18
2018-03-26T03:08:32.812Z,5.31
2018-03-26T03:09:32.827Z,5.18
2018-03-26T03:10:32.844Z,5.10
2018-03-26T03:11:32.851Z,5.09
2018-03-26T03:12:32.895Z,5.12
2018-03-26T03:13:32.872Z,5.07
2018-03-26T03:14:32.880Z,5.00
2018-03-26T03:15:32.899Z,5.00
2018-03-26T03:16:32.909Z,4.92
2018-03-26T03:17:32.937Z,5.21
2018-03-26T03:18:32.923Z,4.94
2018-03-26T03:19:32.942Z,4.88
2018-03-26T03:20:32.951Z,5.12
2018-03-26T03:21:32.961Z,5.31
2018-03-26T03:22:33.027Z,5.33
2018-03-26T03:23:32.985Z,5.42
2018-03-26T03:24:32.993Z,5.65
2018-03-26T03:25:33.009Z,5.54
2018-03-26T03:26:33.016Z,5.61
2018-03-26T03:27:33.049Z,5.64
2018-03-26T03:28:33.044Z,5.58
2018-03-26T03:29:33.071Z,5.36
2018-03-26T03:30:33.071Z,5.12
2018-03-26T03:31:33.079Z,5.07
2018-03-26T03:32:33.110Z,4.91
2018-03-26T03:33:33.095Z,4.89
2018-03-26T03:34:33.110Z,4.85
2018-03-26T03:35:33.124Z,4.80
2018-03-26T03:36:33.165Z,4.82
2018-03-26T03:37:33.159Z,4.82
2018-03-26T03:38:33.154Z,4.80
2018-03-26T03:39:33.186Z,4.78
2018-03-26T03:40:33.190Z,4.91
2018-03-26T03:41:33.219Z,4.80
2018-03-26T03:42:33.206Z,4.88
2018-03-26T03:43:33.217Z,4.92
2018-03-26T03:44:33.269Z,4.77
2018-03-26T03:45:33.248Z,4.73
2018-03-26T03:46:33.252Z,4.82
2018-03-26T03:47:33.282Z,4.92
2018-03-26T03:48:33.282Z,4.86
2018-03-26T03:49:33.309Z,4.85
2018-03-26T03:50:33.300Z,5.18
2018-03-26T03:51:33.302Z,5.13
2018-03-26T03:52:33.315Z,5.00
2018-03-26T03:53:33.378Z,5.00
2018-03-26T03:54:33.364Z,5.00
2018-03-26T03:55:33.353Z,4.96
2018-03-26T03:56:33.375Z,4.97
2018-03-26T03:57:33.415Z,4.94
2018-03-26T03:58:33.422Z,4.94
2018-03-26T03:59:33.416Z,4.96
2018-03-26T04:00:33.426Z,5.03
2018-03-26T04:01:33.464Z,5.12
2018-03-26T04:02:33.466Z,5.02
2018-03-26T04:03:33.490Z,5.20
2018-03-26T04:04:33.495Z,5.12
2018-03-26T04:05:33.497Z,5.10
2018-03-26T04:06:33.504Z,5.00
2018-03-26T04:07:33.513Z,5.21
2018-03-26T04:08:33.538Z,5.12
2018-03-26T04:09:33.513Z,5.04
2018-03-26T04:10:33.564Z,4.96
2018-03-26T04:11:33.567Z,5.09
2018-03-26T04:12:33.562Z,4.99
2018-03-26T04:13:33.565Z,4.92
2018-03-26T04:14:33.568Z,4.86
2018-03-26T04:15:33.586Z,5.07
2018-03-26T04:16:33.604Z,5.07
2018-03-26T04:17:33.599Z,5.09
2018-03-26T04:18:33.616Z,5.22
2018-03-26T04:19:33.623Z,5.10
2018-03-26T04:20:33.634Z,5.15
2018-03-26T04:21:33.672Z,5.20
2018-03-26T04:22:33.688Z,5.24
2018-03-26T04:23:33.673Z,5.15
2018-03-26T04:24:33.696Z,5.27
2018-03-26T04:25:33.702Z,5.30
2018-03-26T04:26:33.698Z,5.27
2018-03-26T04:27:33.747Z,5.31
2018-03-26T04:28:33.753Z,5.36
2018-03-26T04:29:33.741Z,5.20
2018-03-26T04:30:33.785Z,5.30
2018-03-26T04:31:33.759Z,5.42
2018-03-26T04:32:33.794Z,5.51
2018-03-26T04:33:33.779Z,5.42
2018-03-26T04:34:33.795Z,5.30
2018-03-26T04:35:33.834Z,5.48
2018-03-26T04:36:33.816Z,5.35
2018-03-26T04:37:33.829Z,5.15
2018-03-26T04:38:33.836Z,5.12
2018-03-26T04:39:33.848Z,5.31
2018-03-26T04:40:33.894Z,5.49
2018-03-26T04:41:33.867Z,5.31
2018-03-26T04:42:33.884Z,5.18
2018-03-26T04:43:33.896Z,5.28
2018-03-26T04:44:33.908Z,5.31
2018-03-26T04:45:33.967Z,5.15
2018-03-26T04:46:33.927Z,5.18
2018-03-26T04:47:33.955Z,5.12
2018-03-26T04:48:33.948Z,5.12
2018-03-26T04:49:33.971Z,5.02
2018-03-26T04:50:33.989Z,5.00
2018-03-26T04:51:34.023Z,4.97
2018-03-26T04:52:33.999Z,4.96
2018-03-26T04:53:34.042Z,5.20
2018-03-26T04:54:34.020Z,5.12
2018-03-26T04:55:34.096Z,5.13
2018-03-26T04:56:34.043Z,5.22
2018-03-26T04:57:34.050Z,5.10
2018-03-26T04:58:34.071Z,5.03
2018-03-26T04:59:34.104Z,5.03
2018-03-26T05:00:34.087Z,5.10
2018-03-26T05:01:34.100Z,5.22
2018-03-26T05:02:34.112Z,5.07
2018-03-26T05:03:34.136Z,5.12
2018-03-26T05:04:34.127Z,5.28
2018-03-26T05:05:34.161Z,5.27
2018-03-26T05:06:34.159Z,5.35
2018-03-26T05:07:34.171Z,5.40
2018-03-26T05:08:34.222Z,5.33
2018-03-26T05:09:34.187Z,5.42
2018-03-26T05:10:34.206Z,5.36
2018-03-26T05:11:34.211Z,5.28
2018-03-26T05:12:34.228Z,5.33
2018-03-26T05:13:34.237Z,5.36
2018-03-26T05:14:34.260Z,5.60
2018-03-26T05:15:34.287Z,5.63
2018-03-26T05:16:34.268Z,5.38
2018-03-26T05:17:34.280Z,5.53
2018-03-26T05:18:34.285Z,5.40
2018-03-26T05:19:34.306Z,5.49
2018-03-26T05:20:34.332Z,5.27
2018-03-26T05:21:34.322Z,5.45
2018-03-26T05:22:34.337Z,5.35
2018-03-26T05:23:34.346Z,5.48
2018-03-26T05:24:34.361Z,5.63
2018-03-26T05:25:34.409Z,5.53
2018-03-26T05:26:34.381Z,5.61
2018-03-26T05:27:34.394Z,5.40
2018-03-26T05:28:34.404Z,5.33
2018-03-26T05:29:34.418Z,5.35
2018-03-26T05:30:34.458Z,5.43
2018-03-26T05:31:34.436Z,5.36
2018-03-26T05:32:34.450Z,5.30
2018-03-26T05:33:34.459Z,5.27
2018-03-26T05:34:34.473Z,5.35
2018-03-26T05:35:34.500Z,5.33
2018-03-26T05:36:34.653Z,5.38
2018-03-26T05:37:34.511Z,5.31
2018-03-26T05:38:34.521Z,5.35
2018-03-26T05:39:34.528Z,5.60
2018-03-26T05:40:34.542Z,5.64
2018-03-26T05:41:34.549Z,5.46
2018-03-26T05:42:34.588Z,5.40
2018-03-26T05:43:34.572Z,5.45
2018-03-26T05:44:34.588Z,5.39
2018-03-26T05:45:34.598Z,5.46
2018-03-26T05:46:34.609Z,5.64
2018-03-26T05:47:34.667Z,5.65
2018-03-26T05:48:34.626Z,5.58
2018-03-26T05:49:34.647Z,5.56
2018-03-26T05:50:34.653Z,5.67
2018-03-26T05:51:34.665Z,5.81
2018-03-26T05:52:34.710Z,5.91
2018-03-26T05:53:34.686Z,5.99
2018-03-26T05:54:34.698Z,5.97
2018-03-26T05:55:34.709Z,6.04
2018-03-26T05:56:34.717Z,5.93
2018-03-26T05:57:34.745Z,5.94
2018-03-26T05:58:34.743Z,5.91
2018-03-26T05:59:34.777Z,5.93
2018-03-26T06:00:34.762Z,5.97
2018-03-26T06:01:34.795Z,6.08
2018-03-26T06:02:34.789Z,5.91
2018-03-26T06:03:34.855Z,5.86
2018-03-26T06:04:34.814Z,5.90
2018-03-26T06:05:34.823Z,5.81
2018-03-26T06:06:34.836Z,5.85
2018-03-26T06:07:34.850Z,5.79
2018-03-26T06:08:34.906Z,5.85
2018-03-26T06:09:34.906Z,5.91
2018-03-26T06:10:34.887Z,5.82
2018-03-26T06:11:34.894Z,5.72
2018-03-26T06:12:34.900Z,5.71
2018-03-26T06:13:34.916Z,5.96
2018-03-26T06:14:34.956Z,5.83
2018-03-26T06:15:34.997Z,6.03
2018-03-26T06:16:34.990Z,5.93
2018-03-26T06:17:34.993Z,5.90
2018-03-26T06:18:34.980Z,5.83
2018-03-26T06:19:35.067Z,5.83
2018-03-26T06:20:35.002Z,5.91
2018-03-26T06:21:35.009Z,5.90
2018-03-26T06:22:35.024Z,5.93
2018-03-26T06:23:35.037Z,5.93
2018-03-26T06:24:35.082Z,6.01
2018-03-26T06:25:35.053Z,6.03
2018-03-26T06:26:35.064Z,5.94
2018-03-26T06:27:35.074Z,5.94
2018-03-26T06:28:35.088Z,5.89
2018-03-26T06:29:35.139Z,6.00
2018-03-26T06:30:35.196Z,6.00
2018-03-26T06:31:35.127Z,5.85
2018-03-26T06:32:35.134Z,5.74
2018-03-26T06:33:35.147Z,5.58
2018-03-26T06:34:35.173Z,5.57
2018-03-26T06:35:35.170Z,5.57
2018-03-26T06:36:35.193Z,5.46
2018-03-26T06:37:35.192Z,5.64
2018-03-26T06:38:35.206Z,5.57
2018-03-26T06:39:35.255Z,5.57
2018-03-26T06:40:35.242Z,5.57
2018-03-26T06:41:35.247Z,5.57
2018-03-26T06:42:35.272Z,5.56
2018-03-26T06:43:35.317Z,5.60
2018-03-26T06:44:35.338Z,5.71
2018-03-26T06:45:35.294Z,5.90
2018-03-26T06:46:35.342Z,5.68
2018-03-26T06:47:35.310Z,5.65
2018-03-26T06:48:35.324Z,5.64
2018-03-26T06:49:35.331Z,5.64
2018-03-26T06:50:35.345Z,5.65
2018-03-26T06:51:35.360Z,5.61
2018-03-26T06:52:35.401Z,5.60
2018-03-26T06:53:35.380Z,5.63
2018-03-26T06:54:35.399Z,5.76
2018-03-26T06:55:35.413Z,5.74
2018-03-26T06:56:35.411Z,5.72
2018-03-26T06:57:35.445Z,5.64
2018-03-26T06:58:35.438Z,5.71
2018-03-26T06:59:35.484Z,5.65
2018-03-26T07:00:35.456Z,5.71
2018-03-26T07:01:35.473Z,5.63
2018-03-26T07:02:35.487Z,5.78
2018-03-26T07:03:35.500Z,5.74
2018-03-26T07:04:35.546Z,5.72
2018-03-26T07:05:35.520Z,5.74
2018-03-26T07:06:35.532Z,5.72
2018-03-26T07:07:35.561Z,5.82
2018-03-26T07:08:35.571Z,6.03
2018-03-26T07:09:35.566Z,5.93
2018-03-26T07:10:35.575Z,5.78
2018-03-26T07:11:35.589Z,5.82
2018-03-26T07:12:35.605Z,5.72
2018-03-26T07:13:35.625Z,5.78
2018-03-26T07:14:35.624Z,5.96
2018-03-26T07:15:35.635Z,5.85
2018-03-26T07:16:35.671Z,6.11
2018-03-26T07:17:35.664Z,6.11
2018-03-26T07:18:35.664Z,6.06
2018-03-26T07:19:35.698Z,6.12
2018-03-26T07:20:35.694Z,6.08
2018-03-26T07:21:35.747Z,6.27
2018-03-26T07:22:35.723Z,6.18
2018-03-26T07:23:35.765Z,6.17
2018-03-26T07:24:35.743Z,6.21
2018-03-26T07:25:35.751Z,6.19
2018-03-26T07:26:35.767Z,6.22
2018-03-26T07:27:35.775Z,6.27
2018-03-26T07:28:35.804Z,6.22
2018-03-26T07:29:35.796Z,6.34
2018-03-26T07:30:35.824Z,6.37
2018-03-26T07:31:35.816Z,6.33
2018-03-26T07:32:35.825Z,6.33
2018-03-26T07:33:35.842Z,6.43
2018-03-26T07:34:35.856Z,6.56
2018-03-26T07:35:35.887Z,6.49
2018-03-26T07:36:35.874Z,6.46
2018-03-26T07:37:35.888Z,6.55
2018-03-26T07:38:35.899Z,6.51
2018-03-26T07:39:35.911Z,6.64
2018-03-26T07:40:35.955Z,6.58
2018-03-26T07:41:35.934Z,6.64
2018-03-26T07:42:35.944Z,6.71
2018-03-26T07:43:35.961Z,6.99
2018-03-26T07:44:35.971Z,6.99
2018-03-26T07:45:36.001Z,7.07
2018-03-26T07:46:36.040Z,7.06
2018-03-26T07:47:36.005Z,6.97
2018-03-26T07:48:36.033Z,7.20
2018-03-26T07:49:36.032Z,7.21
2018-03-26T07:50:36.041Z,7.30
2018-03-26T07:51:36.054Z,7.16
2018-03-26T07:52:36.063Z,6.98
2018-03-26T07:53:36.100Z,6.99
2018-03-26T07:54:36.093Z,7.06
2018-03-26T07:55:36.103Z,6.99
2018-03-26T07:56:36.115Z,6.87
2018-03-26T07:57:36.149Z,7.02
2018-03-26T07:58:36.138Z,6.98
2018-03-26T07:59:36.148Z,7.10
2018-03-26T08:00:36.199Z,6.98
2018-03-26T08:01:36.178Z,7.16
2018-03-26T08:02:36.209Z,7.20
2018-03-26T08:03:36.202Z,6.98
2018-03-26T08:04:36.206Z,6.87
2018-03-26T08:05:36.224Z,6.80
2018-03-26T08:06:36.228Z,6.71
2018-03-26T08:07:36.276Z,6.73
2018-03-26T08:08:36.256Z,6.80
2018-03-26T08:09:36.266Z,6.84
2018-03-26T08:10:36.285Z,6.81
2018-03-26T08:11:36.290Z,6.81
2018-03-26T08:12:36.331Z,6.81
2018-03-26T08:13:36.347Z,6.81
2018-03-26T08:14:36.330Z,6.77
2018-03-26T08:15:36.352Z,6.79
2018-03-26T08:16:36.351Z,6.80
2018-03-26T08:17:36.362Z,6.73
2018-03-26T08:18:36.393Z,6.79
2018-03-26T08:19:36.387Z,6.71
2018-03-26T08:20:36.396Z,6.87
2018-03-26T08:21:36.425Z,6.95
2018-03-26T08:22:36.438Z,6.85
2018-03-26T08:23:36.437Z,6.99
2018-03-26T08:24:36.442Z,6.84
2018-03-26T08:25:36.454Z,6.70
2018-03-26T08:26:36.470Z,6.73
2018-03-26T08:27:36.503Z,6.76
2018-03-26T08:28:36.499Z,6.91
2018-03-26T08:29:36.594Z,6.74
2018-03-26T08:30:36.570Z,6.67
2018-03-26T08:31:36.595Z,6.69
2018-03-26T08:32:36.544Z,6.71
2018-03-26T08:33:36.554Z,6.74
2018-03-26T08:34:36.572Z,6.70
2018-03-26T08:35:36.595Z,6.74
2018-03-26T08:36:36.602Z,6.79
2018-03-26T08:37:36.605Z,6.80
2018-03-26T08:38:36.617Z,6.87
2018-03-26T08:39:36.622Z,6.88
2018-03-26T08:40:36.708Z,6.88
2018-03-26T08:41:36.644Z,6.87
2018-03-26T08:42:36.664Z,6.87
2018-03-26T08:43:36.668Z,6.98
2018-03-26T08:44:36.710Z,7.02
2018-03-26T08:45:36.696Z,7.17
2018-03-26T08:46:36.707Z,7.34
2018-03-26T08:47:36.739Z,7.55
2018-03-26T08:48:36.734Z,7.79
2018-03-26T08:49:36.740Z,7.68
2018-03-26T08:50:36.772Z,7.50
2018-03-26T08:51:36.767Z,7.35
2018-03-26T08:52:36.812Z,7.74
2018-03-26T08:53:36.840Z,7.79
2018-03-26T08:54:36.800Z,7.71
2018-03-26T08:55:36.816Z,7.85
2018-03-26T08:56:36.830Z,7.79
2018-03-26T08:57:36.882Z,7.52
2018-03-26T08:58:36.852Z,7.58
2018-03-26T08:59:36.864Z,7.69
2018-03-26T09:00:36.877Z,7.55
2018-03-26T09:01:36.882Z,7.71
2018-03-26T09:02:36.920Z,7.68
2018-03-26T09:03:36.912Z,7.86
2018-03-26T09:04:36.937Z,7.64
2018-03-26T09:05:36.936Z,7.71
2018-03-26T09:06:36.949Z,7.90
2018-03-26T09:07:36.992Z,7.87
2018-03-26T09:08:36.967Z,8.04
2018-03-26T09:09:36.984Z,8.08
2018-03-26T09:10:37.002Z,8.07
2018-03-26T09:11:37.018Z,8.20
2018-03-26T09:12:37.055Z,8.20
2018-03-26T09:13:37.067Z,8.29
2018-03-26T09:14:37.045Z,8.33
2018-03-26T09:15:37.055Z,8.40
2018-03-26T09:16:37.073Z,8.68
2018-03-26T09:17:37.099Z,8.80
2018-03-26T09:18:37.096Z,8.89
2018-03-26T09:19:37.133Z,8.94
2018-03-26T09:20:37.115Z,9.11
2018-03-26T09:21:37.152Z,9.21
2018-03-26T09:22:37.143Z,9.35
2018-03-26T09:23:37.156Z,9.29
2018-03-26T09:24:37.194Z,9.24
2018-03-26T09:25:37.214Z,9.01
2018-03-26T09:26:37.192Z,9.04
2018-03-26T09:27:37.212Z,9.96
2018-03-26T09:28:37.221Z,10.78
2018-03-26T09:29:37.233Z,10.14
2018-03-26T09:30:37.828Z,9.89
2018-03-26T09:31:37.258Z,9.68
2018-03-26T09:32:37.318Z,9.76
2018-03-26T09:33:37.367Z,9.42
2018-03-26T09:34:37.295Z,9.17
2018-03-26T09:35:42.203Z,9.13
2018-03-26T09:36:37.340Z,9.04
2018-03-26T09:37:37.333Z,9.31
2018-03-26T09:38:37.391Z,9.42
2018-03-26T09:39:37.478Z,9.31
2018-03-26T09:40:37.372Z,9.24
2018-03-26T09:41:37.382Z,9.40
2018-03-26T09:42:37.581Z,9.38
2018-03-26T09:43:37.503Z,9.31
2018-03-26T09:44:37.450Z,9.42
2018-03-26T09:45:37.436Z,9.47
2018-03-26T09:46:37.450Z,9.40
2018-03-26T09:47:37.479Z,9.40
2018-03-26T09:48:37.498Z,9.26
2018-03-26T09:49:37.487Z,8.96
2018-03-26T09:50:40.460Z,8.99
2018-03-26T09:51:37.515Z,8.95
2018-03-26T09:52:37.520Z,9.08
2018-03-26T09:53:37.578Z,9.24
2018-03-26T09:54:37.551Z,9.28
2018-03-26T09:55:37.558Z,9.20
2018-03-26T09:56:37.575Z,9.05
2018-03-26T09:57:37.602Z,9.33
2018-03-26T09:58:37.655Z,9.11
2018-03-26T09:59:37.615Z,9.24
2018-03-26T10:00:37.623Z,9.33
2018-03-26T10:01:37.634Z,9.29
2018-03-26T10:02:37.651Z,9.32
2018-03-26T10:03:40.340Z,9.60
2018-03-26T10:04:37.726Z,9.42
2018-03-26T10:05:41.782Z,9.54
2018-03-26T10:06:37.731Z,9.46
2018-03-26T10:07:37.732Z,9.29
2018-03-26T10:08:37.808Z,9.21
2018-03-26T10:09:39.279Z,9.38
2018-03-26T10:10:38.341Z,9.29
2018-03-26T10:11:38.361Z,9.26
2018-03-26T10:12:37.777Z,9.26
2018-03-26T10:13:37.846Z,9.28
2018-03-26T10:14:38.769Z,9.35
2018-03-26T10:15:37.820Z,9.42
2018-03-26T10:16:37.829Z,9.36
2018-03-26T10:17:37.854Z,9.43
2018-03-26T10:18:37.869Z,9.31
2018-03-26T10:19:37.871Z,9.31
2018-03-26T10:20:37.911Z,9.32
2018-03-26T10:21:37.891Z,9.32
2018-03-26T10:22:37.906Z,9.40
2018-03-26T10:23:37.920Z,9.24
2018-03-26T10:24:37.932Z,9.33
2018-03-26T10:25:37.964Z,9.46
2018-03-26T10:26:37.951Z,9.61
2018-03-26T10:27:37.971Z,9.69
2018-03-26T10:28:38.011Z,9.83
2018-03-26T10:29:38.009Z,9.84
2018-03-26T10:30:38.082Z,9.97
2018-03-26T10:31:38.083Z,9.93
2018-03-26T10:32:38.086Z,10.20
2018-03-26T10:33:38.042Z,10.34
2018-03-26T10:34:38.111Z,10.18
2018-03-26T10:35:38.147Z,10.20
2018-03-26T10:36:38.082Z,9.96
2018-03-26T10:37:38.098Z,9.89
2018-03-26T10:38:38.170Z,10.08
2018-03-26T10:39:38.139Z,9.97
2018-03-26T10:40:38.180Z,10.07
2018-03-26T10:41:38.229Z,10.20
2018-03-26T10:42:38.161Z,10.30
2018-03-26T10:43:38.174Z,10.51
2018-03-26T10:44:38.191Z,10.22
2018-03-26T10:45:38.968Z,10.12
2018-03-26T10:46:41.814Z,10.07
2018-03-26T10:47:39.071Z,10.30
2018-03-26T10:48:38.359Z,10.63
2018-03-26T10:49:38.405Z,10.55
2018-03-26T10:50:38.415Z,10.60
2018-03-26T10:51:38.413Z,10.23
2018-03-26T10:52:38.312Z,10.09
2018-03-26T10:53:38.894Z,10.23
2018-03-26T10:54:38.922Z,10.30
2018-03-26T10:55:39.330Z,10.38
2018-03-26T10:56:38.446Z,10.38
2018-03-26T10:57:38.601Z,10.25
2018-03-26T10:58:38.433Z,10.15
2018-03-26T10:59:38.403Z,10.26
2018-03-26T11:00:38.397Z,10.27
2018-03-26T11:01:38.437Z,10.23
2018-03-26T11:02:38.463Z,10.22
2018-03-26T11:03:38.448Z,10.18
2018-03-26T11:04:38.473Z,10.22
2018-03-26T11:05:38.493Z,10.33
2018-03-26T11:06:38.522Z,10.45
2018-03-26T11:07:38.530Z,10.55
2018-03-26T11:08:38.506Z,10.73
2018-03-26T11:09:38.519Z,10.66
2018-03-26T11:10:38.528Z,10.74
2018-03-26T11:11:38.614Z,10.67
2018-03-26T11:12:38.566Z,10.70
2018-03-26T11:13:38.604Z,10.68
2018-03-26T11:14:38.663Z,10.91
2018-03-26T11:15:38.654Z,10.89
2018-03-26T11:16:38.681Z,10.89
2018-03-26T11:17:38.620Z,11.04
2018-03-26T11:18:38.632Z,11.03
2018-03-26T11:19:38.724Z,11.02
2018-03-26T11:20:38.662Z,11.07
2018-03-26T11:21:38.689Z,11.18
2018-03-26T11:22:38.768Z,11.11
2018-03-26T11:23:38.737Z,11.15
2018-03-26T11:24:38.758Z,11.14
2018-03-26T11:25:39.084Z,10.97
2018-03-26T11:26:38.742Z,11.19
2018-03-26T11:27:38.782Z,11.22
2018-03-26T11:28:38.808Z,11.39
2018-03-26T11:29:38.803Z,11.32
2018-03-26T11:30:38.826Z,11.28
2018-03-26T11:31:38.815Z,11.43
2018-03-26T11:32:38.922Z,11.60
2018-03-26T11:33:38.829Z,11.72
2018-03-26T11:34:38.865Z,11.55
2018-03-26T11:35:38.904Z,11.69
2018-03-26T11:36:38.893Z,11.95
2018-03-26T11:37:38.891Z,11.69
2018-03-26T11:38:38.942Z,11.69
2018-03-26T11:39:38.925Z,11.72
2018-03-26T11:40:38.932Z,11.72
2018-03-26T11:41:38.950Z,11.58
2018-03-26T11:42:38.966Z,11.49
2018-03-26T11:43:39.028Z,11.65
2018-03-26T11:44:38.988Z,11.79
2018-03-26T11:45:39.008Z,11.88
2018-03-26T11:46:39.013Z,11.88
2018-03-26T11:47:39.030Z,11.80
2018-03-26T11:48:39.086Z,11.85
2018-03-26T11:49:39.117Z,11.64
2018-03-26T11:50:39.090Z,11.69
2018-03-26T11:51:39.141Z,11.47
2018-03-26T11:52:39.109Z,11.36
2018-03-26T11:53:40.121Z,11.43
2018-03-26T11:54:39.133Z,11.58
2018-03-26T11:55:39.157Z,11.55
2018-03-26T11:56:39.183Z,11.57
2018-03-26T11:57:39.167Z,11.54
2018-03-26T11:58:39.193Z,11.55
2018-03-26T11:59:39.199Z,11.58
2018-03-26T12:00:39.211Z,11.37
2018-03-26T12:01:39.937Z,11.46
2018-03-26T12:02:39.295Z,11.49
2018-03-26T12:03:39.253Z,11.33
2018-03-26T12:04:39.283Z,11.37
2018-03-26T12:05:39.279Z,11.21
2018-03-26T12:06:39.324Z,11.24
2018-03-26T12:07:39.313Z,11.44
2018-03-26T12:08:39.322Z,11.60
2018-03-26T12:09:39.338Z,11.80
2018-03-26T12:10:39.342Z,11.54
2018-03-26T12:11:39.434Z,11.51
2018-03-26T12:12:39.369Z,11.33
2018-03-26T12:13:39.382Z,11.42
2018-03-26T12:14:40.036Z,11.32
2018-03-26T12:15:39.417Z,11.28
2018-03-26T12:16:39.432Z,11.32
2018-03-26T12:17:39.551Z,11.33
2018-03-26T12:18:39.451Z,11.60
2018-03-26T12:19:39.475Z,11.49
2018-03-26T12:20:39.487Z,11.42
2018-03-26T12:21:40.110Z,11.49
2018-03-26T12:22:39.593Z,11.49
2018-03-26T12:23:39.680Z,11.42
2018-03-26T12:24:39.550Z,11.44
2018-03-26T12:25:39.550Z,11.33
2018-03-26T12:26:39.567Z,11.47
2018-03-26T12:27:39.737Z,11.70
2018-03-26T12:28:39.602Z,11.52
2018-03-26T12:29:40.556Z,11.70
2018-03-26T12:30:39.625Z,11.60
2018-03-26T12:31:39.639Z,11.90
2018-03-26T12:32:39.667Z,11.73
2018-03-26T12:33:39.665Z,11.72
2018-03-26T12:34:39.679Z,11.78
2018-03-26T12:35:39.687Z,11.72
2018-03-26T12:36:39.740Z,11.67
2018-03-26T12:37:40.605Z,11.54
2018-03-26T12:38:39.739Z,11.67
2018-03-26T12:39:39.767Z,11.64
2018-03-26T12:40:39.759Z,11.61
2018-03-26T12:41:39.862Z,11.54
2018-03-26T12:42:39.811Z,11.62
2018-03-26T12:43:39.914Z,11.46
2018-03-26T12:44:39.909Z,11.42
2018-03-26T12:45:39.843Z,11.37
2018-03-26T12:46:39.851Z,11.32
2018-03-26T12:47:39.869Z,11.39
2018-03-26T12:48:39.909Z,11.46
2018-03-26T12:49:39.888Z,11.40
2018-03-26T12:50:39.953Z,11.62
2018-03-26T12:51:39.916Z,11.65
2018-03-26T12:52:39.920Z,11.28
2018-03-26T12:53:39.989Z,11.25
2018-03-26T12:54:39.963Z,11.28
2018-03-26T12:55:39.965Z,11.36
2018-03-26T12:56:39.975Z,11.32
2018-03-26T12:57:39.999Z,11.57
2018-03-26T12:58:40.053Z,11.51
2018-03-26T12:59:40.154Z,11.27
2018-03-26T13:00:40.037Z,11.35
2018-03-26T13:01:40.052Z,11.21
2018-03-26T13:02:40.099Z,11.21
2018-03-26T13:03:40.129Z,11.29
2018-03-26T13:04:40.144Z,11.36
2018-03-26T13:05:40.138Z,11.40
2018-03-26T13:06:40.123Z,11.18
2018-03-26T13:07:40.202Z,11.17
2018-03-26T13:08:40.228Z,11.29
2018-03-26T13:09:40.157Z,11.36
2018-03-26T13:10:40.228Z,11.42
2018-03-26T13:11:40.233Z,11.43
2018-03-26T13:12:40.285Z,11.42
2018-03-26T13:13:40.270Z,11.49